Buraimi, Oman
Current Conditions -  °F | °C
As of 6:00 PM on Saturday 22 Nov 2014 (Local Time) from OMAL Reporting Station
Clear Clear  
Wind Chill: 81°   Ceiling: Unl
Heat Index: 81°   Visibility: 6mi
Dew Point: 52°   Wind: 12mph
Humidity: 37%   Direction: 340°NNW
Pressure: 29.97"   Gusts: NA
Location:  24.25°N, 55.79°E
Report Text: OMAL 221400Z 34010KT CAVOK 27/11 Q1015 A2999 NOSIG
Loading
Personal Weather Stations






























Interactive Weather Map New forecast layout! Learn more

10-Day Weather Forecast

Advertisements
Track Severe Weather on mobile